Terminal Aerodrome Forecast
Issued by NWS Wilmington, OH

Current Version | Previous Version | Text Only | Print | Product List | Glossary On
Versions: 1 2 3 4 5 6 7 8 9 10 11 12 13 14 15 16 17 18 19
052 FTUS41 KILN 281038 AAA TAFCMH TAF AMD KCMH 281038Z 2811/2906 15003KT 5SM BR BKN018 TEMPO 2811/2813 OVC008 FM281400 18005KT P6SM BKN035 FM282200 22012KT P6SM VCTS BKN040CB FM290300 25008KT P6SM BKN100=

USA.gov is the U.S. government's official web portal to all federal, state and local government web resources and services.